createdAt,value
2023-03-06T00:01:23.637Z,28.50
2023-03-06T00:03:52.724Z,28.50
2023-03-06T00:06:21.114Z,28.50
2023-03-06T00:08:49.045Z,28.50
2023-03-06T00:11:17.435Z,28.50
2023-03-06T00:13:45.564Z,28.50
2023-03-06T00:16:13.770Z,28.50
2023-03-06T00:31:00.960Z,28.40
2023-03-06T00:33:30.138Z,28.60
2023-03-06T00:35:58.426Z,28.70
2023-03-06T00:38:26.497Z,28.70
2023-03-06T00:40:54.856Z,28.60
2023-03-06T00:43:23.066Z,28.60
2023-03-06T00:45:51.498Z,28.60
2023-03-06T00:48:19.837Z,28.60
2023-03-06T00:50:48.131Z,28.60
2023-03-06T00:53:16.342Z,28.50
2023-03-06T00:55:47.692Z,28.50
2023-03-06T00:58:16.069Z,28.50
2023-03-06T01:00:44.036Z,28.50
2023-03-06T01:03:13.174Z,28.50
2023-03-06T01:05:41.804Z,28.50
2023-03-06T01:08:10.073Z,28.50
2023-03-06T01:10:41.565Z,28.50
2023-03-06T01:13:10.679Z,28.50
2023-03-06T01:15:39.116Z,28.40
2023-03-06T01:18:07.404Z,28.40
2023-03-06T01:20:37.554Z,28.40
2023-03-06T01:23:05.847Z,28.40
2023-03-06T01:25:34.205Z,28.40
2023-03-06T01:28:02.169Z,28.40
2023-03-06T01:30:30.636Z,28.40
2023-03-06T01:32:59.023Z,28.40
2023-03-06T01:35:27.316Z,28.40
2023-03-06T01:37:55.559Z,28.40
2023-03-06T01:40:23.789Z,28.40
2023-03-06T01:42:52.356Z,28.40
2023-03-06T01:45:20.596Z,28.40
2023-03-06T01:47:48.909Z,28.40
2023-03-06T01:50:16.822Z,28.40
2023-03-06T01:52:53.585Z,28.40
2023-03-06T01:55:28.334Z,28.40
2023-03-06T01:58:01.347Z,28.40
2023-03-06T02:00:30.630Z,28.40
2023-03-06T02:03:13.277Z,28.40
2023-03-06T02:05:43.164Z,28.40
2023-03-06T02:08:17.649Z,28.40
2023-03-06T02:11:10.473Z,28.40
2023-03-06T02:13:40.064Z,28.40
2023-03-06T02:16:11.069Z,28.40
2023-03-06T02:18:41.211Z,28.30
2023-03-06T02:21:24.662Z,28.30
2023-03-06T02:24:38.344Z,28.30
2023-03-06T02:27:08.798Z,28.30
2023-03-06T02:29:37.145Z,28.30
2023-03-06T02:32:05.884Z,28.30
2023-03-06T02:34:40.142Z,28.30
2023-03-06T02:37:10.738Z,28.30
2023-03-06T02:39:45.153Z,28.30
2023-03-06T02:42:19.908Z,28.30
2023-03-06T02:44:50.013Z,28.30
2023-03-06T02:47:18.288Z,28.30
2023-03-06T02:49:46.673Z,28.30
2023-03-06T02:52:14.914Z,28.30
2023-03-06T02:54:43.147Z,28.30
2023-03-06T02:57:11.522Z,28.30
2023-03-06T02:59:39.600Z,28.30
2023-03-06T03:02:07.975Z,28.30
2023-03-06T03:04:36.189Z,28.30
2023-03-06T03:07:05.069Z,28.30
2023-03-06T03:09:33.384Z,28.30
2023-03-06T03:12:01.809Z,28.30
2023-03-06T03:14:30.650Z,28.30
2023-03-06T03:16:58.581Z,28.30
2023-03-06T03:19:28.042Z,28.30
2023-03-06T03:21:57.089Z,28.30
2023-03-06T03:24:25.582Z,28.30
2023-03-06T03:26:55.352Z,28.30
2023-03-06T03:29:25.259Z,28.30
2023-03-06T03:31:54.808Z,28.30
2023-03-06T03:34:26.351Z,28.30
2023-03-06T03:36:55.246Z,28.30
2023-03-06T03:39:23.459Z,28.20
2023-03-06T03:41:51.872Z,28.30
2023-03-06T03:44:21.169Z,28.20
2023-03-06T03:46:50.260Z,28.30
2023-03-06T03:49:22.438Z,28.30
2023-03-06T03:51:51.958Z,28.30
2023-03-06T03:54:21.530Z,28.30
2023-03-06T03:56:51.395Z,28.30
2023-03-06T03:59:25.720Z,28.20
2023-03-06T04:02:16.920Z,28.20
2023-03-06T04:04:55.764Z,28.30
2023-03-06T04:07:24.030Z,28.20
2023-03-06T04:09:52.249Z,28.20
2023-03-06T04:12:21.309Z,28.20
2023-03-06T04:14:49.371Z,28.20
2023-03-06T04:17:18.459Z,28.20
2023-03-06T04:19:46.448Z,28.20
2023-03-06T04:22:14.943Z,28.20
2023-03-06T04:24:43.882Z,28.20
2023-03-06T04:27:12.651Z,28.20
2023-03-06T04:29:40.868Z,28.20
2023-03-06T04:32:09.451Z,28.20
2023-03-06T04:34:37.826Z,28.20
2023-03-06T04:37:07.691Z,28.20
2023-03-06T04:39:35.605Z,28.20
2023-03-06T04:42:03.885Z,28.20
2023-03-06T04:44:31.911Z,28.20
2023-03-06T04:47:00.128Z,28.20
2023-03-06T04:49:28.330Z,28.20
2023-03-06T04:51:56.648Z,28.20
2023-03-06T04:54:24.801Z,28.10
2023-03-06T04:56:53.104Z,28.10
2023-03-06T04:59:21.514Z,28.20
2023-03-06T05:01:49.404Z,28.20
2023-03-06T05:04:17.621Z,28.20
2023-03-06T05:06:46.071Z,28.10
2023-03-06T05:09:13.908Z,28.10
2023-03-06T05:11:42.262Z,28.10
2023-03-06T05:14:10.225Z,28.10
2023-03-06T05:16:38.400Z,28.10
2023-03-06T05:19:06.955Z,28.10
2023-03-06T05:21:35.279Z,28.10
2023-03-06T05:24:03.230Z,28.10
2023-03-06T05:26:31.444Z,28.10
2023-03-06T05:28:59.766Z,28.20
2023-03-06T05:31:28.010Z,28.10
2023-03-06T05:33:57.756Z,28.10
2023-03-06T05:36:26.075Z,28.10
2023-03-06T05:38:54.133Z,28.10
2023-03-06T05:41:22.440Z,28.10
2023-03-06T05:43:50.787Z,28.10
2023-03-06T05:46:19.091Z,28.10
2023-03-06T05:48:47.142Z,28.10
2023-03-06T05:51:15.508Z,28.10
2023-03-06T05:53:43.691Z,28.10
2023-03-06T05:56:12.431Z,28.10
2023-03-06T05:58:40.981Z,28.10
2023-03-06T06:01:14.608Z,28.10
2023-03-06T06:03:43.712Z,28.10
2023-03-06T06:06:14.371Z,28.10
2023-03-06T06:08:43.465Z,28.10
2023-03-06T06:11:13.648Z,28.10
2023-03-06T06:13:42.216Z,28.10
2023-03-06T06:16:11.709Z,28.10
2023-03-06T06:18:41.480Z,28.10
2023-03-06T06:21:11.788Z,28.10
2023-03-06T06:23:40.105Z,28.10
2023-03-06T06:26:09.825Z,28.00
2023-03-06T06:28:38.311Z,28.00
2023-03-06T06:31:11.855Z,28.10
2023-03-06T06:33:41.249Z,28.10
2023-03-06T06:36:21.238Z,28.00
2023-03-06T06:38:50.247Z,28.00
2023-03-06T06:41:42.376Z,28.00
2023-03-06T06:44:09.355Z,28.00
2023-03-06T06:49:26.602Z,28.00
2023-03-06T06:51:54.951Z,28.10
2023-03-06T06:54:22.856Z,28.00
2023-03-06T06:56:51.084Z,28.00
2023-03-06T06:59:19.559Z,28.00
2023-03-06T07:01:47.473Z,28.00
2023-03-06T07:04:16.024Z,28.00
2023-03-06T07:06:44.445Z,28.00
2023-03-06T07:09:12.754Z,28.00
2023-03-06T07:11:41.732Z,28.00
2023-03-06T07:14:10.173Z,27.90
2023-03-06T07:16:38.056Z,28.00
2023-03-06T07:19:07.341Z,27.90
2023-03-06T07:21:36.834Z,27.90
2023-03-06T07:24:05.323Z,27.90
2023-03-06T07:26:34.793Z,27.90
2023-03-06T07:29:04.204Z,27.90
2023-03-06T07:31:32.700Z,27.90
2023-03-06T07:34:03.179Z,27.90
2023-03-06T07:36:33.818Z,27.90
2023-03-06T07:39:02.108Z,28.00
2023-03-06T07:41:29.994Z,27.90
2023-03-06T07:43:58.346Z,27.90
2023-03-06T07:46:26.797Z,27.90
2023-03-06T07:48:55.229Z,27.90
2023-03-06T07:51:23.205Z,27.90
2023-03-06T07:53:51.526Z,27.90
2023-03-06T07:56:19.549Z,27.90
2023-03-06T07:58:48.379Z,27.90
2023-03-06T08:01:19.477Z,27.90
2023-03-06T08:03:48.573Z,27.90
2023-03-06T08:06:22.671Z,27.90
2023-03-06T08:08:52.792Z,27.90
2023-03-06T08:11:25.470Z,27.90
2023-03-06T08:13:54.582Z,27.90
2023-03-06T08:16:27.326Z,27.90
2023-03-06T08:18:56.355Z,27.90
2023-03-06T08:21:27.503Z,27.90
2023-03-06T08:23:56.612Z,27.90
2023-03-06T08:26:30.434Z,27.90
2023-03-06T08:29:00.663Z,27.90
2023-03-06T08:31:33.732Z,27.90
2023-03-06T08:34:07.703Z,27.90
2023-03-06T08:36:36.044Z,27.90
2023-03-06T08:39:05.315Z,27.90
2023-03-06T08:41:36.994Z,27.90
2023-03-06T08:44:06.066Z,27.90
2023-03-06T08:46:35.670Z,27.90
2023-03-06T08:49:07.824Z,27.90
2023-03-06T08:51:36.225Z,27.90
2023-03-06T08:54:04.798Z,27.90
2023-03-06T08:56:34.902Z,27.90
2023-03-06T08:59:05.177Z,27.90
2023-03-06T09:01:36.039Z,27.90
2023-03-06T09:04:09.952Z,27.90
2023-03-06T09:06:42.059Z,27.90
2023-03-06T09:09:10.573Z,27.90
2023-03-06T09:11:39.853Z,27.90
2023-03-06T09:14:08.299Z,27.90
2023-03-06T09:16:36.541Z,27.90
2023-03-06T09:19:04.691Z,27.80
2023-03-06T09:21:32.985Z,27.90
2023-03-06T09:24:01.422Z,27.90
2023-03-06T09:26:43.319Z,27.90
2023-03-06T09:29:13.779Z,27.90
2023-03-06T09:31:42.038Z,27.90
2023-03-06T09:34:12.155Z,27.80
2023-03-06T09:36:56.050Z,27.80
2023-03-06T09:39:26.518Z,27.90
2023-03-06T09:41:55.856Z,27.80
2023-03-06T09:44:28.442Z,27.80
2023-03-06T09:47:35.343Z,27.80
2023-03-06T09:50:11.503Z,27.90
2023-03-06T09:53:00.040Z,27.80
2023-03-06T09:55:36.733Z,27.90
2023-03-06T09:58:35.082Z,27.90
2023-03-06T10:01:12.566Z,27.90
2023-03-06T10:03:54.946Z,27.90
2023-03-06T10:06:35.492Z,27.90
2023-03-06T10:09:06.642Z,27.90
2023-03-06T10:11:46.224Z,27.90
2023-03-06T10:14:41.638Z,27.90
2023-03-06T10:17:17.396Z,27.90
2023-03-06T10:19:46.174Z,27.90
2023-03-06T10:22:40.183Z,27.90
2023-03-06T10:25:17.504Z,27.90
2023-03-06T10:27:51.253Z,27.90
2023-03-06T10:30:34.275Z,27.90
2023-03-06T10:33:42.819Z,27.90
2023-03-06T10:36:17.686Z,27.90
2023-03-06T10:38:47.873Z,27.90
2023-03-06T10:41:25.304Z,27.90
2023-03-06T10:44:05.857Z,27.90
2023-03-06T10:46:38.661Z,27.90
2023-03-06T10:49:23.326Z,27.90
2023-03-06T10:52:25.944Z,27.90
2023-03-06T10:55:17.107Z,27.90
2023-03-06T10:57:45.506Z,27.90
2023-03-06T11:00:28.559Z,27.90
2023-03-06T11:03:24.734Z,27.90
2023-03-06T11:06:12.285Z,27.90
2023-03-06T11:08:41.755Z,27.90
2023-03-06T11:11:14.494Z,28.00
2023-03-06T11:13:45.201Z,27.90
2023-03-06T11:16:29.071Z,27.90
2023-03-06T11:19:01.186Z,27.90
2023-03-06T11:21:33.438Z,27.90
2023-03-06T11:24:17.988Z,27.90
2023-03-06T11:26:56.193Z,27.90
2023-03-06T11:29:30.260Z,27.90
2023-03-06T11:32:26.744Z,27.90
2023-03-06T11:35:22.331Z,28.00
2023-03-06T11:38:01.198Z,28.00
2023-03-06T11:40:54.361Z,27.90
2023-03-06T11:43:36.552Z,28.00
2023-03-06T11:46:29.663Z,27.90
2023-03-06T11:49:25.519Z,28.00
2023-03-06T11:52:00.823Z,28.00
2023-03-06T11:54:29.230Z,28.00
2023-03-06T11:57:20.038Z,28.00
2023-03-06T12:00:02.994Z,28.00
2023-03-06T12:02:50.520Z,28.00
2023-03-06T12:05:37.620Z,28.00
2023-03-06T12:08:27.480Z,28.00
2023-03-06T12:11:03.840Z,28.00
2023-03-06T12:16:59.193Z,28.00
2023-03-06T12:19:33.576Z,28.00
2023-03-06T12:22:20.259Z,28.00
2023-03-06T12:25:07.394Z,28.00
2023-03-06T12:27:52.459Z,28.00
2023-03-06T12:30:34.998Z,28.10
2023-03-06T12:33:27.708Z,28.00
2023-03-06T12:36:22.011Z,28.10
2023-03-06T12:39:27.175Z,28.10
2023-03-06T12:41:55.572Z,28.10
2023-03-06T12:44:42.142Z,28.10
2023-03-06T12:47:13.982Z,28.10
2023-03-06T12:49:53.812Z,28.10
2023-03-06T12:52:30.507Z,28.10
2023-03-06T12:55:06.416Z,28.10
2023-03-06T12:57:34.830Z,28.10
2023-03-06T13:00:02.954Z,28.10
2023-03-06T13:03:07.149Z,28.10
2023-03-06T13:05:38.420Z,28.10
2023-03-06T13:08:25.528Z,28.10
2023-03-06T13:11:12.314Z,28.10
2023-03-06T13:13:48.510Z,28.10
2023-03-06T13:16:19.560Z,28.10
2023-03-06T13:18:56.561Z,28.10
2023-03-06T13:21:45.054Z,28.20
2023-03-06T13:24:18.450Z,28.20
2023-03-06T13:26:46.692Z,28.20
2023-03-06T13:29:38.990Z,28.10
2023-03-06T13:32:19.856Z,28.20
2023-03-06T13:34:48.823Z,28.20
2023-03-06T13:37:20.194Z,28.20
2023-03-06T13:39:57.701Z,28.20
2023-03-06T13:42:32.147Z,28.20
2023-03-06T13:45:24.087Z,28.20
2023-03-06T13:48:21.188Z,28.20
2023-03-06T13:50:49.316Z,28.20
2023-03-06T13:53:27.733Z,28.30
2023-03-06T13:56:26.844Z,28.30
2023-03-06T13:59:28.746Z,28.30
2023-03-06T14:02:02.948Z,28.30
2023-03-06T14:04:53.258Z,28.30
2023-03-06T14:07:27.470Z,28.30
2023-03-06T14:10:16.137Z,28.30
2023-03-06T14:12:50.267Z,28.30
2023-03-06T14:15:44.988Z,28.30
2023-03-06T14:18:24.369Z,28.30
2023-03-06T14:20:58.217Z,28.30
2023-03-06T14:23:29.900Z,28.40
2023-03-06T14:26:16.142Z,28.30
2023-03-06T14:28:46.724Z,28.40
2023-03-06T14:31:19.543Z,28.40
2023-03-06T14:33:54.275Z,28.30
2023-03-06T14:36:34.733Z,28.40
2023-03-06T14:39:08.858Z,28.40
2023-03-06T14:41:38.030Z,28.40
2023-03-06T14:44:23.839Z,28.40
2023-03-06T14:46:55.069Z,28.40
2023-03-06T14:49:27.112Z,28.40
2023-03-06T14:51:58.612Z,28.40
2023-03-06T14:54:35.632Z,28.40
2023-03-06T14:57:09.144Z,28.40
2023-03-06T14:59:47.298Z,28.50
2023-03-06T15:02:22.105Z,28.40
2023-03-06T15:05:14.920Z,28.50
2023-03-06T15:07:43.306Z,28.50
2023-03-06T15:10:32.005Z,28.50
2023-03-06T15:13:27.504Z,28.50
2023-03-06T15:16:05.042Z,28.50
2023-03-06T15:18:34.985Z,28.50
2023-03-06T15:21:21.132Z,28.50
2023-03-06T15:23:54.546Z,28.50
2023-03-06T15:26:32.178Z,28.50
2023-03-06T15:29:10.188Z,28.50
2023-03-06T15:31:41.844Z,28.50
2023-03-06T15:34:10.117Z,28.50
2023-03-06T15:36:54.575Z,28.60
2023-03-06T15:39:37.864Z,28.60
2023-03-06T15:42:27.364Z,28.60
2023-03-06T15:44:58.385Z,28.50
2023-03-06T15:47:26.910Z,28.60
2023-03-06T15:49:55.294Z,28.60
2023-03-06T15:52:23.318Z,28.60
2023-03-06T15:54:51.725Z,28.60
2023-03-06T15:57:27.461Z,28.60
2023-03-06T15:59:56.266Z,28.60
2023-03-06T16:03:03.432Z,28.60
2023-03-06T16:05:31.991Z,28.60
2023-03-06T16:07:59.862Z,28.60
2023-03-06T16:10:30.559Z,28.60
2023-03-06T16:13:03.358Z,28.70
2023-03-06T16:15:36.098Z,28.70
2023-03-06T16:18:04.735Z,28.70
2023-03-06T16:20:33.651Z,28.70
2023-03-06T16:23:01.958Z,28.70
2023-03-06T16:25:30.299Z,28.80
2023-03-06T16:28:00.530Z,28.80
2023-03-06T16:30:30.819Z,28.80
2023-03-06T16:32:59.912Z,28.80
2023-03-06T16:35:28.395Z,28.80
2023-03-06T16:37:56.658Z,28.80
2023-03-06T16:40:28.193Z,28.80
2023-03-06T16:42:56.849Z,28.80
2023-03-06T16:45:25.961Z,28.80
2023-03-06T16:47:54.805Z,28.80
2023-03-06T16:50:29.697Z,28.80
2023-03-06T16:52:58.573Z,28.80
2023-03-06T16:55:27.656Z,28.80
2023-03-06T16:57:56.202Z,28.80
2023-03-06T17:00:25.020Z,28.90
2023-03-06T17:02:53.392Z,28.80
2023-03-06T17:05:21.755Z,28.90
2023-03-06T17:07:49.832Z,28.90
2023-03-06T17:10:19.958Z,28.90
2023-03-06T17:12:48.349Z,28.80
2023-03-06T17:15:16.548Z,28.90
2023-03-06T17:17:44.498Z,28.80
2023-03-06T17:20:13.730Z,28.80
2023-03-06T17:22:42.294Z,28.90
2023-03-06T17:25:11.341Z,28.90
2023-03-06T17:27:42.531Z,28.90
2023-03-06T17:30:10.936Z,28.90
2023-03-06T17:32:39.834Z,28.90
2023-03-06T17:35:11.375Z,28.80
2023-03-06T17:37:39.955Z,28.90
2023-03-06T17:40:09.851Z,28.90
2023-03-06T17:42:38.062Z,28.90
2023-03-06T17:45:06.892Z,28.90
2023-03-06T17:47:37.805Z,28.90
2023-03-06T17:50:06.626Z,28.90
2023-03-06T17:52:34.912Z,29.00
2023-03-06T17:55:03.162Z,28.90
2023-03-06T17:57:31.185Z,28.90
2023-03-06T17:59:59.634Z,28.90
2023-03-06T18:02:28.048Z,28.90
2023-03-06T18:04:56.569Z,28.90
2023-03-06T18:07:25.129Z,28.90
2023-03-06T18:09:53.521Z,28.90
2023-03-06T18:12:21.646Z,28.90
2023-03-06T18:14:50.002Z,28.90
2023-03-06T18:17:18.354Z,28.90
2023-03-06T18:19:46.561Z,28.90
2023-03-06T18:22:14.975Z,28.90
2023-03-06T18:24:43.219Z,28.90
2023-03-06T18:27:11.512Z,28.90
2023-03-06T18:29:39.939Z,28.90
2023-03-06T18:32:08.271Z,28.90
2023-03-06T18:34:36.275Z,28.90
2023-03-06T18:37:04.604Z,28.90
2023-03-06T18:39:32.989Z,28.90
2023-03-06T18:42:00.953Z,28.90
2023-03-06T18:44:29.175Z,28.90
2023-03-06T18:46:57.338Z,28.90
2023-03-06T18:49:25.680Z,28.90
2023-03-06T18:51:53.650Z,28.90
2023-03-06T18:54:22.047Z,28.90
2023-03-06T18:56:49.886Z,28.90
2023-03-06T18:59:19.002Z,28.90
2023-03-06T19:01:48.078Z,28.90
2023-03-06T19:04:16.473Z,28.90
2023-03-06T19:06:44.748Z,28.90
2023-03-06T19:09:13.051Z,28.90
2023-03-06T19:11:41.111Z,28.90
2023-03-06T19:14:09.391Z,28.90
2023-03-06T19:16:37.604Z,29.00
2023-03-06T19:19:05.577Z,28.90
2023-03-06T19:21:34.032Z,28.90
2023-03-06T19:24:03.513Z,28.90
2023-03-06T19:26:31.941Z,28.90
2023-03-06T19:29:00.398Z,28.90
2023-03-06T19:31:28.782Z,28.90
2023-03-06T19:33:57.678Z,28.90
2023-03-06T19:36:28.224Z,28.90
2023-03-06T19:38:58.522Z,28.90
2023-03-06T19:41:27.336Z,28.90
2023-03-06T19:43:58.539Z,28.90
2023-03-06T19:46:27.939Z,28.90
2023-03-06T19:49:01.242Z,28.90
2023-03-06T19:51:30.242Z,29.00
2023-03-06T19:53:58.671Z,28.90
2023-03-06T19:56:28.579Z,29.00
2023-03-06T19:58:57.137Z,28.90
2023-03-06T20:01:27.643Z,28.90
2023-03-06T20:03:57.879Z,29.00
2023-03-06T20:06:29.040Z,29.00
2023-03-06T20:08:57.384Z,29.00
2023-03-06T20:11:28.061Z,29.00
2023-03-06T20:14:01.628Z,29.00
2023-03-06T20:16:31.097Z,28.90
2023-03-06T20:19:01.013Z,29.00
2023-03-06T20:21:31.425Z,29.00
2023-03-06T20:23:59.936Z,29.00
2023-03-06T20:26:29.389Z,29.00
2023-03-06T20:28:58.574Z,29.00
2023-03-06T20:31:29.290Z,28.90
2023-03-06T20:33:59.775Z,29.00
2023-03-06T20:36:33.055Z,29.00
2023-03-06T20:39:02.230Z,29.00
2023-03-06T20:41:31.944Z,29.00
2023-03-06T20:44:01.891Z,29.00
2023-03-06T20:46:31.364Z,29.00
2023-03-06T20:48:59.826Z,29.00
2023-03-06T20:51:30.859Z,28.90
2023-03-06T20:54:00.862Z,29.00
2023-03-06T20:56:34.237Z,29.00
2023-03-06T20:59:03.344Z,29.00
2023-03-06T21:01:34.948Z,29.00
2023-03-06T21:04:04.126Z,29.00
2023-03-06T21:06:33.505Z,29.00
2023-03-06T21:09:02.940Z,29.00
2023-03-06T21:11:31.345Z,29.00
2023-03-06T21:13:59.710Z,29.00
2023-03-06T21:16:28.470Z,29.00
2023-03-06T21:19:00.935Z,29.00
2023-03-06T21:21:32.296Z,29.00
2023-03-06T21:24:01.665Z,29.00
2023-03-06T21:26:32.232Z,29.00
2023-03-06T21:29:01.470Z,29.00
2023-03-06T21:31:30.531Z,29.00
2023-03-06T21:33:58.908Z,29.00
2023-03-06T21:36:27.660Z,29.10
2023-03-06T21:38:56.187Z,29.00
2023-03-06T21:41:29.302Z,29.10
2023-03-06T21:44:02.374Z,29.10
2023-03-06T21:46:31.271Z,29.10
2023-03-06T21:48:59.917Z,29.10
2023-03-06T21:51:28.321Z,29.10
2023-03-06T21:53:56.877Z,29.00
2023-03-06T21:56:25.599Z,29.10
2023-03-06T21:58:53.917Z,29.10
2023-03-06T22:01:25.463Z,29.10
2023-03-06T22:17:00.108Z,29.10
2023-03-06T22:19:28.527Z,29.30
2023-03-06T22:21:56.889Z,29.30
2023-03-06T22:24:24.830Z,29.30
2023-03-06T22:26:53.220Z,29.30
2023-03-06T22:29:21.725Z,29.30
2023-03-06T22:31:50.404Z,29.30
2023-03-06T22:34:19.041Z,29.20
2023-03-06T22:36:47.473Z,29.20
2023-03-06T22:39:15.928Z,29.20
2023-03-06T22:41:43.856Z,29.20
2023-03-06T22:44:18.135Z,29.10
2023-03-06T22:46:47.363Z,29.10
2023-03-06T22:49:15.810Z,29.10
2023-03-06T22:51:44.814Z,29.10
2023-03-06T22:54:13.365Z,29.10
2023-03-06T22:56:41.611Z,29.10
2023-03-06T22:59:09.758Z,29.10
2023-03-06T23:01:38.191Z,29.00
2023-03-06T23:04:06.247Z,29.00
2023-03-06T23:06:38.500Z,29.10
2023-03-06T23:09:21.785Z,29.00
2023-03-06T23:12:08.570Z,29.00
2023-03-06T23:14:55.588Z,29.00
2023-03-06T23:17:42.580Z,29.00
2023-03-06T23:20:29.538Z,29.00
2023-03-06T23:23:16.513Z,29.00
2023-03-06T23:25:45.161Z,29.00
2023-03-06T23:28:13.683Z,28.90
2023-03-06T23:30:42.849Z,29.00
2023-03-06T23:33:11.754Z,29.00
2023-03-06T23:35:40.270Z,29.00
2023-03-06T23:38:08.558Z,29.00
2023-03-06T23:40:39.107Z,29.00
2023-03-06T23:43:07.803Z,29.00
2023-03-06T23:45:36.105Z,29.00
2023-03-06T23:48:07.095Z,29.00
2023-03-06T23:50:35.551Z,28.90
2023-03-06T23:53:03.834Z,28.90
2023-03-06T23:55:31.942Z,28.90
2023-03-06T23:58:00.110Z,28.90
